20:36
Airports
History
Links
Donate
Help keep this website running!
PayPal
Bitcoin
This page is community maintained. The information is intended for PC simulator navigation or reference.
Always use approved charts for navigation.
SBMO
Zumbi Dos Palmares
Zumbi Dos Palmares (SBMO)
MaceiĆ³, Alagoas, Brazil (57110)
(C)
Lat/Lng:9° 30' 38.91" S / 35° 47' 30.04" W
-9.510808 / -35.791677
Elevation:387'ft / 118mMSL
ID / ICAO:SBMO
Runways:1
Longest:12-30
Asphalt 2,591m / 8,501ft
Controlled:Yes
METAR20:00 GMT 2017-09-22
Altimeter: 30.03
Visibility: 6.2 statute miles
Wind: 11 knots (from 150°)
Temp: 24°c / 75°f
Humidity: 78.4%

METAR: SBMO 222000Z 15011KT 9999 BKN017 24/20 Q1017

(Powered by phpweather)
Airport Radio Frequencies
Tower: 118.25
Approach: 119.25
Runway 12 / 30
Dimensions:2591 x 45.1m 8501' x 148'ft
Surface:Asphalt
Edge Lights:Low intensity
Runway 12 [A]Runway 30 [B]
Heading:100°TH 280°TH
Lat:
Lng:
9° 30' 31.08"S
35° 48' 11.94"W
9° 30' 46.74"S
35° 46' 48.13"W
User Notes and Comments
9° 30' 38.91" S / 35° 47' 30.04" W
Distance To
Airport ID:
Nearby Airports
4 Manduca Leao 3.5 NM
SNML SW 227°
(U) Aeroclube de Alagoas 5.8 NM
SNGS SSE 156°
4 Uruba 11.5 NM
SNWZ W 278°
4 Laginha 22.6 NM
SNWP NW 307°
4 Usina Porto Rico 35.6 NM
SNUP SW 235°
4 Senador Teotonio Vilela 41.6 NM
SNTW SW 230°
4 Muzzi 42.0 NM
SNZZ SW 221°
VFR Chart
Flight Planning at SkyVector.com